sensor_id;sensor_type;location;lat;lon;timestamp;pressure;altitude;pressure_sealevel;temperature;humidity
66398;BME280;54877;51.504;3.894;2024-02-14T00:00:01;101336.69;;;11.33;78.17
66398;BME280;54877;51.504;3.894;2024-02-14T00:02:26;101332.59;;;11.46;77.93
66398;BME280;54877;51.504;3.894;2024-02-14T00:04:52;101335.56;;;11.38;78.35
66398;BME280;54877;51.504;3.894;2024-02-14T00:07:18;101331.72;;;11.45;78.27
66398;BME280;54877;51.504;3.894;2024-02-14T00:09:44;101330.34;;;11.55;77.85
66398;BME280;54877;51.504;3.894;2024-02-14T00:12:09;101326.41;;;11.45;78.28
66398;BME280;54877;51.504;3.894;2024-02-14T00:14:35;101322.25;;;11.58;77.79
66398;BME280;54877;51.504;3.894;2024-02-14T00:17:00;101323.03;;;11.60;77.63
66398;BME280;54877;51.504;3.894;2024-02-14T00:19:26;101328.44;;;11.59;77.55
66398;BME280;54877;51.504;3.894;2024-02-14T00:21:51;101323.69;;;11.65;77.35
66398;BME280;54877;51.504;3.894;2024-02-14T00:24:16;101314.88;;;11.65;77.18
66398;BME280;54877;51.504;3.894;2024-02-14T00:26:43;101327.56;;;11.58;77.60
66398;BME280;54877;51.504;3.894;2024-02-14T00:29:11;101328.94;;;11.67;77.15
66398;BME280;54877;51.504;3.894;2024-02-14T00:31:36;101325.41;;;11.66;77.08
66398;BME280;54877;51.504;3.894;2024-02-14T00:34:01;101342.97;;;11.70;76.81
66398;BME280;54877;51.504;3.894;2024-02-14T00:36:27;101345.72;;;11.67;77.05
66398;BME280;54877;51.504;3.894;2024-02-14T00:38:52;101348.25;;;11.70;77.08
66398;BME280;54877;51.504;3.894;2024-02-14T00:41:18;101342.50;;;11.79;76.91
66398;BME280;54877;51.504;3.894;2024-02-14T00:43:43;101350.59;;;11.76;76.98
66398;BME280;54877;51.504;3.894;2024-02-14T00:46:08;101356.78;;;11.77;77.29
66398;BME280;54877;51.504;3.894;2024-02-14T00:48:34;101358.41;;;11.79;77.09
66398;BME280;54877;51.504;3.894;2024-02-14T00:50:59;101362.31;;;11.72;77.63
66398;BME280;54877;51.504;3.894;2024-02-14T00:53:24;101358.41;;;11.79;77.42
66398;BME280;54877;51.504;3.894;2024-02-14T00:55:50;101362.03;;;11.78;77.55
66398;BME280;54877;51.504;3.894;2024-02-14T00:58:16;101366.59;;;11.75;77.74
66398;BME280;54877;51.504;3.894;2024-02-14T01:00:41;101361.66;;;11.86;77.54
66398;BME280;54877;51.504;3.894;2024-02-14T01:03:07;101354.84;;;11.81;77.88
66398;BME280;54877;51.504;3.894;2024-02-14T01:05:33;101360.78;;;11.86;77.63
66398;BME280;54877;51.504;3.894;2024-02-14T01:07:58;101370.69;;;11.82;78.15
66398;BME280;54877;51.504;3.894;2024-02-14T01:10:23;101364.94;;;11.72;78.10
66398;BME280;54877;51.504;3.894;2024-02-14T01:12:49;101359.66;;;11.72;78.56
66398;BME280;54877;51.504;3.894;2024-02-14T01:15:14;101369.16;;;11.76;78.51
66398;BME280;54877;51.504;3.894;2024-02-14T01:17:39;101366.09;;;11.86;78.32
66398;BME280;54877;51.504;3.894;2024-02-14T01:20:05;101374.19;;;11.83;78.43
66398;BME280;54877;51.504;3.894;2024-02-14T01:22:33;101371.91;;;11.94;77.92
66398;BME280;54877;51.504;3.894;2024-02-14T01:25:00;101374.94;;;11.86;78.38
66398;BME280;54877;51.504;3.894;2024-02-14T01:27:25;101366.88;;;11.88;78.25
66398;BME280;54877;51.504;3.894;2024-02-14T01:29:50;101379.94;;;11.73;79.09
66398;BME280;54877;51.504;3.894;2024-02-14T01:32:16;101383.94;;;11.82;78.63
66398;BME280;54877;51.504;3.894;2024-02-14T01:34:42;101376.47;;;11.71;79.38
66398;BME280;54877;51.504;3.894;2024-02-14T01:37:07;101374.19;;;11.83;79.01
66398;BME280;54877;51.504;3.894;2024-02-14T01:39:34;101384.31;;;11.74;79.78
66398;BME280;54877;51.504;3.894;2024-02-14T01:42:00;101384.91;;;11.81;79.50
66398;BME280;54877;51.504;3.894;2024-02-14T01:44:25;101381.50;;;11.77;79.91
66398;BME280;54877;51.504;3.894;2024-02-14T01:46:51;101375.16;;;11.82;79.60
66398;BME280;54877;51.504;3.894;2024-02-14T01:49:17;101382.66;;;11.91;79.49
66398;BME280;54877;51.504;3.894;2024-02-14T01:51:43;101382.81;;;11.88;79.73
66398;BME280;54877;51.504;3.894;2024-02-14T01:54:11;101381.09;;;11.87;79.69
66398;BME280;54877;51.504;3.894;2024-02-14T01:56:38;101384.53;;;11.89;79.67
66398;BME280;54877;51.504;3.894;2024-02-14T01:59:04;101387.31;;;11.86;80.02
66398;BME280;54877;51.504;3.894;2024-02-14T02:01:31;101382.66;;;11.91;79.56
66398;BME280;54877;51.504;3.894;2024-02-14T02:03:56;101383.47;;;11.93;79.47
66398;BME280;54877;51.504;3.894;2024-02-14T02:06:22;101381.88;;;11.89;79.80
66398;BME280;54877;51.504;3.894;2024-02-14T02:08:48;101384.81;;;11.83;80.08
66398;BME280;54877;51.504;3.894;2024-02-14T02:11:13;101389.97;;;11.86;80.05
66398;BME280;54877;51.504;3.894;2024-02-14T02:13:39;101383.63;;;11.90;80.05
66398;BME280;54877;51.504;3.894;2024-02-14T02:16:05;101374.69;;;11.91;79.91
66398;BME280;54877;51.504;3.894;2024-02-14T02:18:34;101382.38;;;11.97;79.54
66398;BME280;54877;51.504;3.894;2024-02-14T02:20:59;101374.06;;;11.86;79.87
66398;BME280;54877;51.504;3.894;2024-02-14T02:23:24;101381.22;;;12.02;79.28
66398;BME280;54877;51.504;3.894;2024-02-14T02:25:50;101386.47;;;11.85;79.79
66398;BME280;54877;51.504;3.894;2024-02-14T02:28:16;101392.63;;;11.86;80.16
66398;BME280;54877;51.504;3.894;2024-02-14T02:30:42;101389.41;;;11.98;79.50
66398;BME280;54877;51.504;3.894;2024-02-14T02:33:07;101388.19;;;12.05;79.22
66398;BME280;54877;51.504;3.894;2024-02-14T02:35:36;101388.69;;;12.13;78.89
66398;BME280;54877;51.504;3.894;2024-02-14T02:38:01;101387.19;;;12.07;78.94
66398;BME280;54877;51.504;3.894;2024-02-14T02:40:26;101390.41;;;12.14;78.84
66398;BME280;54877;51.504;3.894;2024-02-14T02:42:54;101391.34;;;12.13;78.85
66398;BME280;54877;51.504;3.894;2024-02-14T02:45:20;101384.25;;;12.13;78.54
66398;BME280;54877;51.504;3.894;2024-02-14T02:47:45;101397.47;;;12.15;78.77
66398;BME280;54877;51.504;3.894;2024-02-14T02:50:12;101399.94;;;12.18;78.59
66398;BME280;54877;51.504;3.894;2024-02-14T02:52:38;101391.34;;;12.13;78.53
66398;BME280;54877;51.504;3.894;2024-02-14T02:55:03;101389.63;;;12.12;78.41
66398;BME280;54877;51.504;3.894;2024-02-14T02:57:30;101392.16;;;12.15;78.70
66398;BME280;54877;51.504;3.894;2024-02-14T02:59:57;101384.19;;;12.15;78.64
66398;BME280;54877;51.504;3.894;2024-02-14T03:02:23;101395.09;;;12.09;79.04
66398;BME280;54877;51.504;3.894;2024-02-14T03:04:48;101399.03;;;12.00;79.76
66398;BME280;54877;51.504;3.894;2024-02-14T03:07:13;101397.75;;;12.09;79.30
66398;BME280;54877;51.504;3.894;2024-02-14T03:09:38;101396.88;;;12.08;79.36
66398;BME280;54877;51.504;3.894;2024-02-14T03:12:04;101397.88;;;12.06;79.50
66398;BME280;54877;51.504;3.894;2024-02-14T03:14:30;101401.53;;;12.22;79.18
66398;BME280;54877;51.504;3.894;2024-02-14T03:16:58;101404.19;;;12.22;79.17
66398;BME280;54877;51.504;3.894;2024-02-14T03:19:27;101405.09;;;12.21;79.37
66398;BME280;54877;51.504;3.894;2024-02-14T03:21:55;101395.44;;;12.20;79.21
66398;BME280;54877;51.504;3.894;2024-02-14T03:24:21;101407.47;;;12.27;79.23
66398;BME280;54877;51.504;3.894;2024-02-14T03:26:47;101408.56;;;12.23;79.53
66398;BME280;54877;51.504;3.894;2024-02-14T03:29:13;101413.06;;;12.21;79.90
66398;BME280;54877;51.504;3.894;2024-02-14T03:31:38;101417.47;;;12.22;79.91
66398;BME280;54877;51.504;3.894;2024-02-14T03:34:04;101418.47;;;12.19;79.92
66398;BME280;54877;51.504;3.894;2024-02-14T03:36:30;101416.53;;;12.23;79.87
66398;BME280;54877;51.504;3.894;2024-02-14T03:38:59;101419.47;;;12.17;80.53
66398;BME280;54877;51.504;3.894;2024-02-14T03:41:28;101415.44;;;12.27;80.08
66398;BME280;54877;51.504;3.894;2024-02-14T03:43:54;101422.63;;;12.25;80.19
66398;BME280;54877;51.504;3.894;2024-02-14T03:46:23;101424.75;;;12.35;79.84
66398;BME280;54877;51.504;3.894;2024-02-14T03:48:49;101426.69;;;12.32;79.80
66398;BME280;54877;51.504;3.894;2024-02-14T03:51:14;101425.41;;;12.22;80.35
66398;BME280;54877;51.504;3.894;2024-02-14T03:53:40;101433.97;;;12.28;79.99
66398;BME280;54877;51.504;3.894;2024-02-14T03:56:06;101431.94;;;12.33;79.97
66398;BME280;54877;51.504;3.894;2024-02-14T03:58:34;101433.59;;;12.36;79.84
66398;BME280;54877;51.504;3.894;2024-02-14T04:01:02;101431.56;;;12.41;79.57
66398;BME280;54877;51.504;3.894;2024-02-14T04:03:28;101445.97;;;12.37;79.83
66398;BME280;54877;51.504;3.894;2024-02-14T04:05:54;101444.22;;;12.36;79.84
66398;BME280;54877;51.504;3.894;2024-02-14T04:08:19;101437.25;;;12.33;80.01
66398;BME280;54877;51.504;3.894;2024-02-14T04:10:44;101442.19;;;12.41;79.75
66398;BME280;54877;51.504;3.894;2024-02-14T04:13:11;101440.19;;;12.46;79.59
66398;BME280;54877;51.504;3.894;2024-02-14T04:15:36;101440.66;;;12.37;80.12
66398;BME280;54877;51.504;3.894;2024-02-14T04:18:01;101451.81;;;12.44;79.67
66398;BME280;54877;51.504;3.894;2024-02-14T04:20:28;101450.75;;;12.48;79.73
66398;BME280;54877;51.504;3.894;2024-02-14T04:22:54;101449.25;;;12.42;80.00
66398;BME280;54877;51.504;3.894;2024-02-14T04:25:19;101451.09;;;12.40;80.21
66398;BME280;54877;51.504;3.894;2024-02-14T04:27:44;101444.50;;;12.30;80.61
66398;BME280;54877;51.504;3.894;2024-02-14T04:30:10;101453.25;;;12.32;80.99
66398;BME280;54877;51.504;3.894;2024-02-14T04:32:35;101452.81;;;12.41;80.43
66398;BME280;54877;51.504;3.894;2024-02-14T04:35:01;101455.63;;;12.38;80.62
66398;BME280;54877;51.504;3.894;2024-02-14T04:37:26;101452.97;;;12.38;80.64
66398;BME280;54877;51.504;3.894;2024-02-14T04:39:51;101452.97;;;12.38;80.63
66398;BME280;54877;51.504;3.894;2024-02-14T04:42:17;101453.09;;;12.35;80.86
66398;BME280;54877;51.504;3.894;2024-02-14T04:44:42;101452.91;;;12.40;80.88
66398;BME280;54877;51.504;3.894;2024-02-14T04:47:08;101449.44;;;12.37;80.96
66398;BME280;54877;51.504;3.894;2024-02-14T04:49:37;101451.53;;;12.31;81.21
66398;BME280;54877;51.504;3.894;2024-02-14T04:52:02;101455.25;;;12.46;80.77
66398;BME280;54877;51.504;3.894;2024-02-14T04:54:29;101455.06;;;12.31;81.45
66398;BME280;54877;51.504;3.894;2024-02-14T04:56:54;101449.38;;;12.39;81.36
66398;BME280;54877;51.504;3.894;2024-02-14T04:59:20;101456.41;;;12.40;81.41
66398;BME280;54877;51.504;3.894;2024-02-14T05:01:45;101454.97;;;12.33;81.53
66398;BME280;54877;51.504;3.894;2024-02-14T05:04:11;101458.84;;;12.45;81.15
66398;BME280;54877;51.504;3.894;2024-02-14T05:06:40;101455.91;;;12.51;80.69
66398;BME280;54877;51.504;3.894;2024-02-14T05:09:07;101453.59;;;12.43;81.24
66398;BME280;54877;51.504;3.894;2024-02-14T05:11:32;101453.25;;;12.51;81.03
66398;BME280;54877;51.504;3.894;2024-02-14T05:13:57;101456.13;;;12.46;81.30
66398;BME280;54877;51.504;3.894;2024-02-14T05:16:23;101452.25;;;12.53;80.80
66398;BME280;54877;51.504;3.894;2024-02-14T05:18:48;101458.34;;;12.55;80.78
66398;BME280;54877;51.504;3.894;2024-02-14T05:21:13;101462.41;;;12.62;80.61
66398;BME280;54877;51.504;3.894;2024-02-14T05:23:39;101463.38;;;12.61;80.72
66398;BME280;54877;51.504;3.894;2024-02-14T05:26:04;101465.06;;;12.62;80.52
66398;BME280;54877;51.504;3.894;2024-02-14T05:28:30;101458.91;;;12.62;80.53
66398;BME280;54877;51.504;3.894;2024-02-14T05:30:56;101469.59;;;12.60;80.78
66398;BME280;54877;51.504;3.894;2024-02-14T05:33:22;101454.97;;;12.52;81.09
66398;BME280;54877;51.504;3.894;2024-02-14T05:35:48;101460.28;;;12.52;81.04
66398;BME280;54877;51.504;3.894;2024-02-14T05:38:14;101457.41;;;12.56;81.03
66398;BME280;54877;51.504;3.894;2024-02-14T05:40:39;101463.38;;;12.61;80.72
66398;BME280;54877;51.504;3.894;2024-02-14T05:43:05;101460.84;;;12.58;81.22
66398;BME280;54877;51.504;3.894;2024-02-14T05:45:32;101467.03;;;12.59;81.30
66398;BME280;54877;51.504;3.894;2024-02-14T05:47:57;101465.38;;;12.56;81.67
66398;BME280;54877;51.504;3.894;2024-02-14T05:50:23;101471.00;;;12.50;81.70
66398;BME280;54877;51.504;3.894;2024-02-14T05:52:48;101467.31;;;12.53;81.73
66398;BME280;54877;51.504;3.894;2024-02-14T05:55:13;101469.75;;;12.38;82.48
66398;BME280;54877;51.504;3.894;2024-02-14T05:57:40;101470.03;;;12.51;82.12
66398;BME280;54877;51.504;3.894;2024-02-14T06:00:05;101471.63;;;12.55;81.98
66398;BME280;54877;51.504;3.894;2024-02-14T06:02:31;101465.53;;;12.53;81.98
66398;BME280;54877;51.504;3.894;2024-02-14T06:04:56;101471.91;;;12.49;82.23
66398;BME280;54877;51.504;3.894;2024-02-14T06:07:22;101468.63;;;12.44;82.49
66398;BME280;54877;51.504;3.894;2024-02-14T06:09:47;101465.69;;;12.50;82.23
66398;BME280;54877;51.504;3.894;2024-02-14T06:12:12;101475.78;;;12.61;81.94
66398;BME280;54877;51.504;3.894;2024-02-14T06:14:37;101470.38;;;12.62;81.51
66398;BME280;54877;51.504;3.894;2024-02-14T06:17:03;101471.03;;;12.67;81.60
66398;BME280;54877;51.504;3.894;2024-02-14T06:19:28;101474.47;;;12.69;81.29
66398;BME280;54877;51.504;3.894;2024-02-14T06:21:55;101481.88;;;12.63;81.28
66398;BME280;54877;51.504;3.894;2024-02-14T06:24:20;101474.63;;;12.66;81.17
66398;BME280;54877;51.504;3.894;2024-02-14T06:26:45;101481.81;;;12.64;81.30
66398;BME280;54877;51.504;3.894;2024-02-14T06:29:11;101478.94;;;12.69;81.07
66398;BME280;54877;51.504;3.894;2024-02-14T06:31:36;101485.00;;;12.71;80.75
66398;BME280;54877;51.504;3.894;2024-02-14T06:34:01;101471.19;;;12.64;81.00
66398;BME280;54877;51.504;3.894;2024-02-14T06:36:27;101474.38;;;12.71;80.87
66398;BME280;54877;51.504;3.894;2024-02-14T06:38:52;101479.50;;;12.75;80.63
66398;BME280;54877;51.504;3.894;2024-02-14T06:41:18;101477.34;;;12.65;81.07
66398;BME280;54877;51.504;3.894;2024-02-14T06:43:45;101488.13;;;12.62;81.10
66398;BME280;54877;51.504;3.894;2024-02-14T06:46:10;101491.19;;;12.71;80.88
66398;BME280;54877;51.504;3.894;2024-02-14T06:48:36;101488.41;;;12.74;80.74
66398;BME280;54877;51.504;3.894;2024-02-14T06:51:01;101492.78;;;12.75;80.79
66398;BME280;54877;51.504;3.894;2024-02-14T06:53:26;101492.13;;;12.70;80.78
66398;BME280;54877;51.504;3.894;2024-02-14T06:55:52;101489.63;;;12.67;80.96
66398;BME280;54877;51.504;3.894;2024-02-14T06:58:17;101496.38;;;12.74;80.81
66398;BME280;54877;51.504;3.894;2024-02-14T07:00:43;101497.91;;;12.61;81.24
66398;BME280;54877;51.504;3.894;2024-02-14T07:03:09;101502.19;;;12.64;81.26
66398;BME280;54877;51.504;3.894;2024-02-14T07:05:34;101502.75;;;12.70;81.15
66398;BME280;54877;51.504;3.894;2024-02-14T07:08:00;101498.81;;;12.60;81.28
66398;BME280;54877;51.504;3.894;2024-02-14T07:10:25;101503.06;;;12.64;81.19
66398;BME280;54877;51.504;3.894;2024-02-14T07:12:51;101508.25;;;12.67;81.36
66398;BME280;54877;51.504;3.894;2024-02-14T07:15:16;101505.41;;;12.70;80.97
66398;BME280;54877;51.504;3.894;2024-02-14T07:17:42;101506.50;;;12.66;81.40
66398;BME280;54877;51.504;3.894;2024-02-14T07:20:07;101506.66;;;12.63;81.51
66398;BME280;54877;51.504;3.894;2024-02-14T07:22:34;101514.19;;;12.72;81.21
66398;BME280;54877;51.504;3.894;2024-02-14T07:25:03;101512.41;;;12.73;81.22
66398;BME280;54877;51.504;3.894;2024-02-14T07:27:30;101511.53;;;12.72;81.20
66398;BME280;54877;51.504;3.894;2024-02-14T07:29:55;101519.69;;;12.68;81.51
66398;BME280;54877;51.504;3.894;2024-02-14T07:32:21;101518.50;;;12.75;81.29
66398;BME280;54877;51.504;3.894;2024-02-14T07:34:46;101513.81;;;12.80;81.11
66398;BME280;54877;51.504;3.894;2024-02-14T07:37:12;101514.09;;;12.74;81.23
66398;BME280;54877;51.504;3.894;2024-02-14T07:39:37;101513.56;;;12.67;81.53
66398;BME280;54877;51.504;3.894;2024-02-14T07:42:03;101518.56;;;12.55;81.78
66398;BME280;54877;51.504;3.894;2024-02-14T07:44:28;101519.56;;;12.71;81.83
66398;BME280;54877;51.504;3.894;2024-02-14T07:46:54;101521.88;;;12.78;81.41
66398;BME280;54877;51.504;3.894;2024-02-14T07:49:19;101514.81;;;12.77;81.37
66398;BME280;54877;51.504;3.894;2024-02-14T07:51:45;101527.72;;;12.85;81.03
66398;BME280;54877;51.504;3.894;2024-02-14T07:54:11;101524.28;;;12.83;81.01
66398;BME280;54877;51.504;3.894;2024-02-14T07:56:36;101528.38;;;12.90;80.79
66398;BME280;54877;51.504;3.894;2024-02-14T07:59:01;101538.44;;;12.83;81.04
66398;BME280;54877;51.504;3.894;2024-02-14T08:01:27;101532.31;;;12.81;81.40
66398;BME280;54877;51.504;3.894;2024-02-14T08:03:53;101529.66;;;12.81;81.05
66398;BME280;54877;51.504;3.894;2024-02-14T08:06:19;101535.94;;;12.80;81.24
66398;BME280;54877;51.504;3.894;2024-02-14T08:08:45;101542.25;;;12.78;81.44
66398;BME280;54877;51.504;3.894;2024-02-14T08:11:10;101538.38;;;12.85;81.08
66398;BME280;54877;51.504;3.894;2024-02-14T08:13:35;101542.13;;;12.81;81.52
66398;BME280;54877;51.504;3.894;2024-02-14T08:16:02;101537.72;;;12.80;81.65
66398;BME280;54877;51.504;3.894;2024-02-14T08:18:27;101531.50;;;12.81;81.50
66398;BME280;54877;51.504;3.894;2024-02-14T08:20:53;101533.91;;;12.85;81.44
66398;BME280;54877;51.504;3.894;2024-02-14T08:23:18;101541.66;;;12.90;81.44
66398;BME280;54877;51.504;3.894;2024-02-14T08:25:44;101534.69;;;12.87;81.72
66398;BME280;54877;51.504;3.894;2024-02-14T08:28:10;101540.00;;;12.87;81.68
66398;BME280;54877;51.504;3.894;2024-02-14T08:30:36;101548.47;;;12.95;81.28
66398;BME280;54877;51.504;3.894;2024-02-14T08:33:02;101550.34;;;12.93;81.68
66398;BME280;54877;51.504;3.894;2024-02-14T08:35:28;101545.97;;;12.92;81.79
66398;BME280;54877;51.504;3.894;2024-02-14T08:37:54;101554.50;;;12.99;81.70
66398;BME280;54877;51.504;3.894;2024-02-14T08:40:20;101545.13;;;12.92;82.01
66398;BME280;54877;51.504;3.894;2024-02-14T08:42:45;101546.63;;;12.98;82.22
66398;BME280;54877;51.504;3.894;2024-02-14T08:45:10;101556.75;;;13.08;81.84
66398;BME280;54877;51.504;3.894;2024-02-14T08:47:36;101561.78;;;13.14;81.60
66398;BME280;54877;51.504;3.894;2024-02-14T08:50:01;101576.28;;;13.07;81.77
66398;BME280;54877;51.504;3.894;2024-02-14T08:52:28;101559.81;;;13.18;81.50
66398;BME280;54877;51.504;3.894;2024-02-14T08:54:53;101555.75;;;12.92;82.32
66398;BME280;54877;51.504;3.894;2024-02-14T08:57:19;101552.63;;;13.01;82.20
66398;BME280;54877;51.504;3.894;2024-02-14T08:59:44;101565.78;;;13.04;82.08
66398;BME280;54877;51.504;3.894;2024-02-14T09:02:12;101564.75;;;13.07;82.36
66398;BME280;54877;51.504;3.894;2024-02-14T09:04:38;101569.97;;;13.10;82.23
66398;BME280;54877;51.504;3.894;2024-02-14T09:07:04;101568.28;;;13.09;82.20
66398;BME280;54877;51.504;3.894;2024-02-14T09:09:29;101563.88;;;13.08;82.29
66398;BME280;54877;51.504;3.894;2024-02-14T09:11:54;101561.22;;;13.08;82.55
66398;BME280;54877;51.504;3.894;2024-02-14T09:14:20;101561.78;;;13.14;82.26
66398;BME280;54877;51.504;3.894;2024-02-14T09:16:45;101561.94;;;13.11;82.70
66398;BME280;54877;51.504;3.894;2024-02-14T09:19:11;101573.13;;;13.18;82.41
66398;BME280;54877;51.504;3.894;2024-02-14T09:21:37;101565.06;;;13.19;82.45
66398;BME280;54877;51.504;3.894;2024-02-14T09:24:03;101560.78;;;13.17;82.72
66398;BME280;54877;51.504;3.894;2024-02-14T09:26:29;101559.34;;;13.10;83.39
66398;BME280;54877;51.504;3.894;2024-02-14T09:28:54;101559.91;;;13.16;83.16
66398;BME280;54877;51.504;3.894;2024-02-14T09:31:20;101558.44;;;13.28;82.89
66398;BME280;54877;51.504;3.894;2024-02-14T09:33:48;101559.38;;;13.27;83.04
66398;BME280;54877;51.504;3.894;2024-02-14T09:36:14;101564.84;;;13.24;83.57
66398;BME280;54877;51.504;3.894;2024-02-14T09:38:40;101564.69;;;13.27;83.53
66398;BME280;54877;51.504;3.894;2024-02-14T09:41:15;101563.38;;;13.35;83.32
66398;BME280;54877;51.504;3.894;2024-02-14T09:43:48;101567.53;;;13.41;83.13
66398;BME280;54877;51.504;3.894;2024-02-14T09:46:14;101575.38;;;13.44;82.86
66398;BME280;54877;51.504;3.894;2024-02-14T09:48:41;101569.28;;;13.42;82.95
66398;BME280;54877;51.504;3.894;2024-02-14T09:51:10;101566.44;;;13.45;82.76
66398;BME280;54877;51.504;3.894;2024-02-14T09:53:37;101567.28;;;13.45;82.68
66398;BME280;54877;51.504;3.894;2024-02-14T09:56:04;101569.09;;;13.45;82.73
66398;BME280;54877;51.504;3.894;2024-02-14T09:58:30;101576.38;;;13.41;82.80
66398;BME280;54877;51.504;3.894;2024-02-14T10:00:59;101568.78;;;13.51;82.49
66398;BME280;54877;51.504;3.894;2024-02-14T10:03:25;101573.19;;;13.52;82.40
66398;BME280;54877;51.504;3.894;2024-02-14T10:05:51;101562.38;;;13.55;82.30
66398;BME280;54877;51.504;3.894;2024-02-14T10:08:17;101573.91;;;13.56;81.91
66398;BME280;54877;51.504;3.894;2024-02-14T10:10:43;101562.69;;;13.49;82.28
66398;BME280;54877;51.504;3.894;2024-02-14T10:13:09;101559.56;;;13.58;82.04
66398;BME280;54877;51.504;3.894;2024-02-14T10:15:35;101574.59;;;13.59;82.10
66398;BME280;54877;51.504;3.894;2024-02-14T10:18:01;101573.56;;;13.62;82.00
66398;BME280;54877;51.504;3.894;2024-02-14T10:20:28;101568.19;;;13.63;81.91
66398;BME280;54877;51.504;3.894;2024-02-14T10:23:02;101566.69;;;13.58;82.33
66398;BME280;54877;51.504;3.894;2024-02-14T10:25:28;101561.66;;;13.51;82.64
66398;BME280;54877;51.504;3.894;2024-02-14T10:27:54;101565.66;;;13.60;82.23
66398;BME280;54877;51.504;3.894;2024-02-14T10:30:19;101567.31;;;13.63;82.44
66398;BME280;54877;51.504;3.894;2024-02-14T10:32:46;101561.94;;;13.64;82.16
66398;BME280;54877;51.504;3.894;2024-02-14T10:35:15;101565.06;;;13.72;82.05
66398;BME280;54877;51.504;3.894;2024-02-14T10:37:41;101569.09;;;13.62;82.77
66398;BME280;54877;51.504;3.894;2024-02-14T10:40:07;101566.75;;;13.73;82.23
66398;BME280;54877;51.504;3.894;2024-02-14T10:42:34;101572.09;;;13.73;82.27
66398;BME280;54877;51.504;3.894;2024-02-14T10:45:00;101571.88;;;13.78;82.16
66398;BME280;54877;51.504;3.894;2024-02-14T10:47:30;101564.72;;;13.78;82.15
66398;BME280;54877;51.504;3.894;2024-02-14T10:49:58;101567.16;;;13.83;82.09
66398;BME280;54877;51.504;3.894;2024-02-14T10:52:27;101556.22;;;13.89;81.92
66398;BME280;54877;51.504;3.894;2024-02-14T10:54:58;101564.97;;;13.91;82.18
66398;BME280;54877;51.504;3.894;2024-02-14T10:57:26;101565.47;;;13.97;81.71
66398;BME280;54877;51.504;3.894;2024-02-14T10:59:54;101558.31;;;13.99;81.51
66398;BME280;54877;51.504;3.894;2024-02-14T11:02:20;101559.53;;;13.92;81.81
66398;BME280;54877;51.504;3.894;2024-02-14T11:04:46;101562.38;;;13.89;81.98
66398;BME280;54877;51.504;3.894;2024-02-14T11:07:12;101574.59;;;13.93;81.66
66398;BME280;54877;51.504;3.894;2024-02-14T11:09:40;101562.06;;;13.95;81.70
66398;BME280;54877;51.504;3.894;2024-02-14T11:12:08;101564.66;;;13.97;81.88
66398;BME280;54877;51.504;3.894;2024-02-14T11:14:35;101573.56;;;13.96;82.07
66398;BME280;54877;51.504;3.894;2024-02-14T11:17:02;101568.94;;;13.99;81.79
66398;BME280;54877;51.504;3.894;2024-02-14T11:19:31;101568.94;;;13.99;81.64
66398;BME280;54877;51.504;3.894;2024-02-14T11:22:10;101568.16;;;13.97;82.01
66398;BME280;54877;51.504;3.894;2024-02-14T11:24:37;101572.53;;;13.98;81.94
66398;BME280;54877;51.504;3.894;2024-02-14T11:27:03;101562.75;;;13.99;82.15
66398;BME280;54877;51.504;3.894;2024-02-14T11:29:34;101567.38;;;13.95;82.40
66398;BME280;54877;51.504;3.894;2024-02-14T11:31:59;101561.75;;;14.01;82.47
66398;BME280;54877;51.504;3.894;2024-02-14T11:34:27;101558.47;;;13.96;82.90
66398;BME280;54877;51.504;3.894;2024-02-14T11:36:52;101565.47;;;13.97;82.80
66398;BME280;54877;51.504;3.894;2024-02-14T11:39:18;101563.84;;;13.95;82.74
66398;BME280;54877;51.504;3.894;2024-02-14T11:41:43;101565.31;;;14.00;82.82
66398;BME280;54877;51.504;3.894;2024-02-14T11:44:08;101564.41;;;14.01;82.87
66398;BME280;54877;51.504;3.894;2024-02-14T11:46:35;101562.13;;;14.11;82.60
66398;BME280;54877;51.504;3.894;2024-02-14T11:49:03;101561.56;;;14.04;83.37
66398;BME280;54877;51.504;3.894;2024-02-14T11:51:29;101544.56;;;14.07;83.17
66398;BME280;54877;51.504;3.894;2024-02-14T11:53:58;101554.22;;;14.09;83.11
66398;BME280;54877;51.504;3.894;2024-02-14T11:56:33;101548.41;;;14.19;82.80
66398;BME280;54877;51.504;3.894;2024-02-14T11:59:03;101550.47;;;13.96;83.78
66398;BME280;54877;51.504;3.894;2024-02-14T12:01:30;101558.44;;;14.13;83.43
66398;BME280;54877;51.504;3.894;2024-02-14T12:03:59;101554.44;;;14.22;83.09
66398;BME280;54877;51.504;3.894;2024-02-14T12:06:30;101552.28;;;14.29;83.00
66398;BME280;54877;51.504;3.894;2024-02-14T12:08:59;101557.16;;;14.21;83.42
66398;BME280;54877;51.504;3.894;2024-02-14T12:11:30;101541.66;;;14.11;83.72
66398;BME280;54877;51.504;3.894;2024-02-14T12:13:57;101562.97;;;14.11;83.72
66398;BME280;54877;51.504;3.894;2024-02-14T12:16:26;101559.63;;;14.08;83.90
66398;BME280;54877;51.504;3.894;2024-02-14T12:19:03;101554.03;;;14.12;83.75
66398;BME280;54877;51.504;3.894;2024-02-14T12:21:48;101553.25;;;14.28;83.18
66398;BME280;54877;51.504;3.894;2024-02-14T12:24:14;101557.47;;;14.14;83.82
66398;BME280;54877;51.504;3.894;2024-02-14T12:26:40;101557.25;;;14.19;83.91
66398;BME280;54877;51.504;3.894;2024-02-14T12:29:06;101555.97;;;14.26;83.54
66398;BME280;54877;51.504;3.894;2024-02-14T12:31:33;101564.53;;;14.16;84.15
66398;BME280;54877;51.504;3.894;2024-02-14T12:33:59;101563.19;;;14.24;83.75
66398;BME280;54877;51.504;3.894;2024-02-14T12:36:27;101572.22;;;14.22;83.78
66398;BME280;54877;51.504;3.894;2024-02-14T12:38:56;101562.50;;;14.21;83.81
66398;BME280;54877;51.504;3.894;2024-02-14T12:41:22;101554.34;;;14.24;83.65
66398;BME280;54877;51.504;3.894;2024-02-14T12:43:48;101549.78;;;14.26;83.32